createdAt,value
2022-08-07T00:01:43.260Z,13.77
2022-08-07T00:03:51.630Z,14.05
2022-08-07T00:06:18.425Z,14.40
2022-08-07T00:08:57.326Z,14.45
2022-08-07T00:11:48.101Z,14.55
2022-08-07T00:14:25.362Z,15.25
2022-08-07T00:16:55.267Z,14.98
2022-08-07T00:19:26.112Z,15.10
2022-08-07T00:22:03.571Z,15.68
2022-08-07T00:24:31.599Z,16.20
2022-08-07T00:27:07.198Z,15.38
2022-08-07T00:29:34.437Z,16.27
2022-08-07T00:32:05.833Z,17.00
2022-08-07T00:34:33.428Z,16.45
2022-08-07T00:37:02.812Z,17.05
2022-08-07T00:39:33.274Z,16.90
2022-08-07T00:42:02.564Z,16.10
2022-08-07T00:44:33.236Z,15.95
2022-08-07T00:47:01.582Z,17.50
2022-08-07T00:50:18.944Z,17.92
2022-08-07T00:52:17.492Z,17.42
2022-08-07T00:54:44.376Z,16.63
2022-08-07T00:57:12.583Z,18.88
2022-08-07T00:59:42.105Z,17.20
2022-08-07T01:02:20.298Z,19.65
2022-08-07T01:04:58.862Z,17.63
2022-08-07T01:07:27.797Z,19.45
2022-08-07T01:10:06.602Z,18.42
2022-08-07T01:12:53.382Z,17.52
2022-08-07T01:15:36.128Z,18.90
2022-08-07T01:18:10.925Z,18.63
2022-08-07T01:20:58.489Z,18.77
2022-08-07T01:23:36.861Z,18.63
2022-08-07T01:26:12.181Z,17.42
2022-08-07T01:28:45.823Z,17.27
2022-08-07T01:31:17.739Z,17.42
2022-08-07T01:33:55.758Z,17.00
2022-08-07T01:36:33.334Z,17.38
2022-08-07T01:39:10.052Z,18.90
2022-08-07T01:42:07.134Z,17.08
2022-08-07T01:44:30.206Z,16.40
2022-08-07T01:46:58.550Z,17.08
2022-08-07T01:49:32.011Z,17.03
2022-08-07T01:52:04.772Z,15.95
2022-08-07T01:54:38.463Z,17.05
2022-08-07T01:57:24.222Z,15.73
2022-08-07T02:00:13.005Z,16.65
2022-08-07T02:03:19.222Z,16.50
2022-08-07T02:06:01.062Z,15.98
2022-08-07T02:08:37.801Z,16.08
2022-08-07T02:11:07.471Z,14.65
2022-08-07T02:13:56.456Z,15.45
2022-08-07T02:16:29.924Z,15.13
2022-08-07T02:19:05.753Z,14.63
2022-08-07T02:21:55.431Z,14.57
2022-08-07T02:24:24.679Z,14.65
2022-08-07T02:26:54.261Z,14.65
2022-08-07T02:29:22.065Z,14.98
2022-08-07T02:31:51.342Z,14.85
2022-08-07T02:34:21.279Z,13.93
2022-08-07T02:36:53.327Z,13.00
2022-08-07T02:39:43.890Z,13.73
2022-08-07T02:42:14.767Z,13.23
2022-08-07T02:44:48.871Z,12.25
2022-08-07T02:47:23.439Z,13.93
2022-08-07T02:49:57.550Z,14.02
2022-08-07T02:52:52.731Z,13.50
2022-08-07T02:58:12.053Z,12.65
2022-08-07T03:00:47.012Z,12.95
2022-08-07T03:03:22.897Z,12.10
2022-08-07T03:05:54.142Z,12.93
2022-08-07T03:08:26.805Z,13.52
2022-08-07T03:10:58.260Z,12.65
2022-08-07T03:13:38.797Z,12.50
2022-08-07T03:16:08.254Z,12.85
2022-08-07T03:18:36.452Z,13.68
2022-08-07T03:21:08.642Z,12.30
2022-08-07T03:26:34.837Z,13.90
2022-08-07T03:29:11.094Z,14.05
2022-08-07T03:31:46.233Z,13.82
2022-08-07T03:34:18.229Z,14.30
2022-08-07T03:36:50.017Z,15.30
2022-08-07T03:39:18.217Z,13.32
2022-08-07T03:42:06.826Z,13.05
2022-08-07T03:44:38.562Z,14.85
2022-08-07T03:47:10.937Z,13.75
2022-08-07T03:49:40.363Z,14.45
2022-08-07T03:52:22.295Z,14.00
2022-08-07T03:54:54.314Z,13.63
2022-08-07T03:58:33.953Z,13.45
2022-08-07T04:00:12.014Z,13.52
2022-08-07T04:02:47.225Z,13.15
2022-08-07T04:05:23.980Z,13.57
2022-08-07T04:07:57.382Z,13.18
2022-08-07T04:10:27.759Z,13.02
2022-08-07T04:12:57.161Z,13.10
2022-08-07T04:15:27.051Z,13.25
2022-08-07T04:18:58.005Z,13.77
2022-08-07T04:20:54.829Z,12.98
2022-08-07T04:23:24.312Z,12.80
2022-08-07T04:26:10.697Z,13.52
2022-08-07T04:28:40.923Z,11.65
2022-08-07T04:31:10.517Z,12.18
2022-08-07T04:33:55.025Z,13.30
2022-08-07T04:36:26.264Z,13.48
2022-08-07T04:38:54.119Z,11.77
2022-08-07T04:41:21.004Z,11.73
2022-08-07T04:44:12.056Z,13.13
2022-08-07T04:47:08.284Z,13.52
2022-08-07T04:50:05.910Z,12.63
2022-08-07T04:52:51.743Z,13.85
2022-08-07T04:58:11.442Z,13.75
2022-08-07T05:01:46.957Z,13.32
2022-08-07T05:04:43.915Z,13.18
2022-08-07T05:07:36.793Z,12.80
2022-08-07T05:10:13.931Z,11.43
2022-08-07T05:13:10.115Z,11.40
2022-08-07T05:15:59.929Z,10.40
2022-08-07T05:18:36.649Z,10.30
2022-08-07T05:21:09.709Z,9.60
2022-08-07T05:23:48.288Z,8.75
2022-08-07T05:26:24.188Z,8.48
2022-08-07T05:28:59.130Z,8.27
2022-08-07T05:31:35.038Z,8.13
2022-08-07T05:34:11.234Z,7.65
2022-08-07T05:36:43.693Z,7.20
2022-08-07T05:40:16.723Z,6.80
2022-08-07T05:42:12.455Z,6.63
2022-08-07T05:44:53.038Z,5.88
2022-08-07T05:47:38.185Z,6.20
2022-08-07T05:50:18.610Z,5.60
2022-08-07T05:52:45.825Z,6.07
2022-08-07T05:55:16.736Z,5.68
2022-08-07T05:57:47.446Z,5.55
2022-08-07T06:00:17.889Z,5.07
2022-08-07T06:02:57.785Z,5.50
2022-08-07T06:05:28.786Z,5.47
2022-08-07T06:08:12.339Z,5.80
2022-08-07T06:10:43.415Z,5.50
2022-08-07T06:13:13.633Z,5.25
2022-08-07T06:15:44.253Z,5.20
2022-08-07T06:18:19.363Z,4.80
2022-08-07T06:20:49.873Z,5.40
2022-08-07T06:24:37.908Z,5.07
2022-08-07T06:26:27.455Z,4.53
2022-08-07T06:28:57.946Z,4.70
2022-08-07T06:31:46.645Z,4.15
2022-08-07T06:34:14.660Z,4.30
2022-08-07T06:36:41.848Z,4.13
2022-08-07T06:40:15.683Z,3.60
2022-08-07T06:42:04.621Z,3.58
2022-08-07T06:44:51.892Z,3.47
2022-08-07T06:47:21.066Z,3.30
2022-08-07T06:49:52.099Z,3.20
2022-08-07T06:52:35.752Z,3.20
2022-08-07T06:55:33.827Z,3.10
2022-08-07T06:58:00.451Z,2.70
2022-08-07T07:00:34.551Z,2.70
2022-08-07T07:03:08.725Z,3.20
2022-08-07T07:06:04.150Z,2.70
2022-08-07T07:08:28.744Z,2.80
2022-08-07T07:10:56.686Z,3.10
2022-08-07T07:13:41.617Z,2.85
2022-08-07T07:16:27.502Z,2.72
2022-08-07T07:19:11.231Z,2.60
2022-08-07T07:22:05.431Z,2.70
2022-08-07T07:24:36.535Z,2.70
2022-08-07T07:27:05.730Z,3.05
2022-08-07T07:29:56.147Z,2.80
2022-08-07T07:32:25.632Z,2.70
2022-08-07T07:34:57.715Z,2.80
2022-08-07T07:37:47.368Z,2.70
2022-08-07T07:40:17.285Z,2.67
2022-08-07T07:42:54.287Z,2.88
2022-08-07T07:46:37.326Z,3.08
2022-08-07T07:51:07.782Z,3.33
2022-08-07T07:53:51.705Z,3.25
2022-08-07T07:56:30.370Z,2.85
2022-08-07T07:59:01.950Z,3.00
2022-08-07T08:02:02.666Z,3.00
2022-08-07T08:04:19.657Z,2.85
2022-08-07T08:06:53.367Z,3.00
2022-08-07T08:09:24.127Z,3.00
2022-08-07T08:12:02.531Z,3.00
2022-08-07T08:14:32.527Z,2.70
2022-08-07T08:17:55.952Z,2.90
2022-08-07T08:20:18.691Z,2.70
2022-08-07T08:23:00.157Z,2.67
2022-08-07T08:25:49.355Z,2.70
2022-08-07T08:28:37.225Z,2.60
2022-08-07T08:31:06.578Z,2.80
2022-08-07T08:33:34.953Z,2.90
2022-08-07T08:36:03.412Z,2.50
2022-08-07T08:38:41.143Z,2.60
2022-08-07T08:41:58.499Z,2.80
2022-08-07T08:44:44.370Z,2.53
2022-08-07T08:47:27.225Z,2.50
2022-08-07T08:50:34.964Z,2.50
2022-08-07T08:53:31.968Z,2.47
2022-08-07T08:56:13.063Z,2.58
2022-08-07T08:59:12.892Z,2.45
2022-08-07T09:01:59.459Z,2.58
2022-08-07T09:04:48.231Z,2.20
2022-08-07T09:08:02.742Z,2.45
2022-08-07T09:10:37.663Z,2.20
2022-08-07T09:13:38.300Z,2.30
2022-08-07T09:16:29.729Z,2.13
2022-08-07T09:19:07.330Z,2.20
2022-08-07T09:24:33.425Z,2.28
2022-08-07T09:25:24.396Z,2.17
2022-08-07T09:30:03.472Z,2.03
2022-08-07T09:31:15.554Z,2.03
2022-08-07T09:34:10.012Z,1.90
2022-08-07T09:36:58.132Z,1.90
2022-08-07T09:39:53.739Z,2.03
2022-08-07T09:42:25.248Z,2.20
2022-08-07T09:47:23.588Z,2.03
2022-08-07T09:48:03.962Z,1.90
2022-08-07T09:52:15.299Z,2.05
2022-08-07T09:54:06.646Z,2.00
2022-08-07T09:57:17.268Z,2.10
2022-08-07T10:00:00.917Z,1.80
2022-08-07T10:04:03.138Z,1.98
2022-08-07T10:06:30.180Z,1.95
2022-08-07T10:09:34.231Z,1.95
2022-08-07T10:12:26.337Z,1.90
2022-08-07T10:15:26.893Z,1.88
2022-08-07T10:18:30.148Z,1.80
2022-08-07T10:22:12.020Z,1.92
2022-08-07T10:24:27.942Z,1.90
2022-08-07T10:27:15.737Z,1.80
2022-08-07T10:30:12.331Z,1.80
2022-08-07T10:33:07.184Z,1.90
2022-08-07T10:35:53.675Z,2.00
2022-08-07T10:38:36.131Z,2.10
2022-08-07T10:41:46.267Z,1.80
2022-08-07T10:44:16.022Z,1.85
2022-08-07T10:47:11.942Z,2.00
2022-08-07T10:49:51.261Z,1.90
2022-08-07T10:52:51.417Z,1.90
2022-08-07T10:55:53.341Z,1.90
2022-08-07T10:58:59.378Z,1.67
2022-08-07T11:01:51.184Z,1.90
2022-08-07T11:04:40.962Z,1.75
2022-08-07T11:07:59.235Z,1.60
2022-08-07T11:10:33.621Z,1.60
2022-08-07T11:13:07.148Z,1.70
2022-08-07T11:18:39.045Z,1.70
2022-08-07T11:21:18.283Z,2.00
2022-08-07T11:24:06.437Z,1.70
2022-08-07T11:27:00.311Z,1.70
2022-08-07T11:29:40.750Z,1.77
2022-08-07T11:32:26.496Z,1.80
2022-08-07T11:35:03.799Z,1.70
2022-08-07T11:37:57.549Z,1.70
2022-08-07T11:41:08.614Z,1.80
2022-08-07T11:44:11.849Z,1.92
2022-08-07T11:46:53.009Z,1.70
2022-08-07T11:50:11.376Z,1.55
2022-08-07T11:53:02.398Z,1.60
2022-08-07T11:56:27.636Z,1.75
2022-08-07T12:00:12.090Z,1.70
2022-08-07T12:02:52.392Z,1.45
2022-08-07T12:05:41.638Z,1.52
2022-08-07T12:08:25.822Z,1.60
2022-08-07T12:11:20.197Z,1.63
2022-08-07T12:13:59.400Z,1.50
2022-08-07T12:16:33.073Z,1.50
2022-08-07T12:19:06.721Z,1.70
2022-08-07T12:22:38.056Z,1.60
2022-08-07T12:26:21.399Z,1.55
2022-08-07T12:28:56.575Z,1.60
2022-08-07T12:32:02.033Z,1.42
2022-08-07T12:34:34.533Z,1.60
2022-08-07T12:37:08.221Z,1.35
2022-08-07T12:39:51.185Z,1.50
2022-08-07T12:42:27.571Z,1.65
2022-08-07T12:44:57.870Z,1.52
2022-08-07T12:47:50.206Z,1.50
2022-08-07T12:50:33.951Z,1.60
2022-08-07T12:53:19.042Z,1.35
2022-08-07T12:56:09.091Z,1.50
2022-08-07T12:58:40.057Z,1.30
2022-08-07T13:01:21.856Z,1.65
2022-08-07T13:04:05.047Z,1.70
2022-08-07T13:07:00.682Z,1.30
2022-08-07T13:10:20.719Z,1.50
2022-08-07T13:12:56.346Z,1.60
2022-08-07T13:15:59.033Z,1.40
2022-08-07T13:18:57.006Z,1.40
2022-08-07T13:21:50.522Z,1.50
2022-08-07T13:24:26.017Z,1.50
2022-08-07T13:27:05.604Z,1.40
2022-08-07T13:30:03.456Z,1.50
2022-08-07T13:32:39.721Z,1.60
2022-08-07T13:35:21.356Z,1.50
2022-08-07T13:38:01.052Z,1.55
2022-08-07T13:40:42.729Z,1.40
2022-08-07T13:43:15.328Z,1.40
2022-08-07T13:46:16.360Z,1.50
2022-08-07T13:48:38.786Z,1.50
2022-08-07T13:51:26.916Z,1.50
2022-08-07T13:54:01.502Z,1.55
2022-08-07T13:56:35.831Z,1.52
2022-08-07T13:59:13.795Z,1.30
2022-08-07T14:02:04.057Z,1.50
2022-08-07T14:04:35.603Z,1.60
2022-08-07T14:07:10.113Z,1.50
2022-08-07T14:10:02.928Z,1.60
2022-08-07T14:12:55.916Z,1.50
2022-08-07T14:15:32.020Z,1.60
2022-08-07T14:18:24.163Z,1.40
2022-08-07T14:22:41.176Z,1.60
2022-08-07T14:24:08.782Z,1.40
2022-08-07T14:26:52.078Z,1.50
2022-08-07T14:30:10.030Z,1.50
2022-08-07T14:32:12.926Z,1.65
2022-08-07T14:34:45.926Z,1.60
2022-08-07T14:37:16.825Z,1.50
2022-08-07T14:40:17.597Z,1.60
2022-08-07T14:43:00.629Z,1.55
2022-08-07T14:48:36.657Z,1.80
2022-08-07T14:51:20.024Z,1.60
2022-08-07T14:56:39.007Z,1.50
2022-08-07T14:59:13.660Z,1.60
2022-08-07T15:02:31.776Z,1.40
2022-08-07T15:05:02.309Z,1.50
2022-08-07T15:13:19.609Z,1.40
2022-08-07T15:15:52.839Z,1.63
2022-08-07T15:18:35.836Z,1.75
2022-08-07T15:27:06.633Z,1.70
2022-08-07T15:30:06.818Z,1.50
2022-08-07T15:32:39.879Z,1.60
2022-08-07T15:36:00.400Z,1.60
2022-08-07T15:38:30.353Z,1.45
2022-08-07T15:41:23.137Z,1.50
2022-08-07T15:44:01.048Z,1.50
2022-08-07T15:46:31.582Z,1.40
2022-08-07T15:49:14.648Z,1.58
2022-08-07T15:54:31.450Z,1.50
2022-08-07T15:57:02.762Z,1.70
2022-08-07T15:59:39.927Z,1.60
2022-08-07T16:02:22.237Z,1.52
2022-08-07T16:05:03.419Z,1.35
2022-08-07T16:08:31.867Z,1.40
2022-08-07T16:10:31.228Z,1.55
2022-08-07T16:13:58.733Z,1.85
2022-08-07T16:16:48.343Z,1.60
2022-08-07T16:19:59.768Z,1.60
2022-08-07T16:22:34.022Z,1.50
2022-08-07T16:25:23.417Z,1.40
2022-08-07T16:30:05.889Z,1.63
2022-08-07T16:31:51.688Z,1.60
2022-08-07T16:34:34.074Z,1.60
2022-08-07T16:38:04.117Z,1.50
2022-08-07T16:40:28.842Z,1.52
2022-08-07T16:43:03.233Z,1.40
2022-08-07T16:46:11.033Z,1.50
2022-08-07T16:50:27.096Z,1.50
2022-08-07T16:52:51.514Z,1.60
2022-08-07T16:55:23.469Z,1.67
2022-08-07T16:58:20.307Z,1.60
2022-08-07T17:01:15.824Z,1.80
2022-08-07T17:04:00.345Z,1.80
2022-08-07T17:07:03.315Z,1.90
2022-08-07T17:10:08.441Z,2.03
2022-08-07T17:12:47.202Z,1.88
2022-08-07T17:15:13.798Z,1.75
2022-08-07T17:17:49.426Z,1.80
2022-08-07T17:20:30.873Z,1.70
2022-08-07T17:23:15.106Z,1.70
2022-08-07T17:25:55.881Z,1.80
2022-08-07T17:28:57.698Z,1.98
2022-08-07T17:31:43.959Z,1.80
2022-08-07T17:34:40.953Z,1.80
2022-08-07T17:38:13.495Z,1.90
2022-08-07T17:42:03.051Z,1.83
2022-08-07T17:44:13.673Z,2.17
2022-08-07T17:46:56.526Z,1.85
2022-08-07T17:49:44.519Z,1.90
2022-08-07T17:52:33.994Z,2.10
2022-08-07T17:55:54.174Z,2.00
2022-08-07T17:58:30.235Z,1.83
2022-08-07T18:01:02.600Z,2.10
2022-08-07T18:04:03.721Z,2.00
2022-08-07T18:06:38.942Z,2.10
2022-08-07T18:09:16.070Z,2.10
2022-08-07T18:14:46.006Z,2.30
2022-08-07T18:18:45.835Z,2.22
2022-08-07T18:21:12.640Z,2.40
2022-08-07T18:23:58.417Z,2.33
2022-08-07T18:26:42.789Z,2.22
2022-08-07T18:30:07.190Z,2.40
2022-08-07T18:32:11.611Z,2.45
2022-08-07T18:35:20.259Z,2.53
2022-08-07T18:38:58.645Z,2.67
2022-08-07T18:41:47.915Z,2.70
2022-08-07T18:45:09.180Z,2.75
2022-08-07T18:47:36.035Z,2.95
2022-08-07T18:50:38.131Z,2.60
2022-08-07T18:53:36.764Z,2.60
2022-08-07T18:56:32.512Z,2.90
2022-08-07T18:58:59.043Z,2.53
2022-08-07T19:02:19.966Z,2.85
2022-08-07T19:04:57.929Z,2.83
2022-08-07T19:07:58.674Z,2.90
2022-08-07T19:10:31.519Z,2.90
2022-08-07T19:13:11.654Z,2.75
2022-08-07T19:16:05.553Z,2.50
2022-08-07T19:18:47.657Z,2.92
2022-08-07T19:21:46.478Z,3.00
2022-08-07T19:24:43.161Z,3.78
2022-08-07T19:28:30.268Z,5.78
2022-08-07T19:31:05.188Z,6.30
2022-08-07T19:32:59.315Z,7.45
2022-08-07T19:35:33.279Z,6.90
2022-08-07T19:38:03.339Z,6.00
2022-08-07T19:40:38.259Z,4.57
2022-08-07T19:43:48.833Z,4.15
2022-08-07T19:46:12.107Z,3.92
2022-08-07T19:48:42.695Z,4.38
2022-08-07T19:51:19.337Z,3.83
2022-08-07T19:54:31.488Z,3.40
2022-08-07T19:58:00.369Z,3.35
2022-08-07T19:59:41.431Z,3.30
2022-08-07T20:02:19.257Z,3.25
2022-08-07T20:04:49.992Z,3.40
2022-08-07T20:07:23.888Z,3.28
2022-08-07T20:10:37.839Z,3.50
2022-08-07T20:12:53.929Z,3.40
2022-08-07T20:15:32.766Z,3.35
2022-08-07T20:18:06.200Z,3.40
2022-08-07T20:20:42.455Z,3.20
2022-08-07T20:23:32.808Z,3.20
2022-08-07T20:26:09.888Z,3.30
2022-08-07T20:28:39.088Z,3.47
2022-08-07T20:31:20.991Z,3.60
2022-08-07T20:33:56.520Z,3.50
2022-08-07T20:37:07.936Z,3.90
2022-08-07T20:40:33.230Z,3.50
2022-08-07T20:43:02.938Z,3.88
2022-08-07T20:46:27.190Z,3.70
2022-08-07T20:48:28.395Z,4.00
2022-08-07T20:50:58.497Z,4.80
2022-08-07T20:54:01.854Z,4.60
2022-08-07T20:56:13.037Z,5.32
2022-08-07T20:58:48.071Z,5.32
2022-08-07T21:01:22.303Z,5.30
2022-08-07T21:04:18.672Z,5.10
2022-08-07T21:06:53.225Z,4.28
2022-08-07T21:09:24.414Z,4.50
2022-08-07T21:11:57.535Z,4.47
2022-08-07T21:14:33.947Z,4.50
2022-08-07T21:18:06.117Z,4.30
2022-08-07T21:20:19.100Z,4.47
2022-08-07T21:22:59.107Z,4.00
2022-08-07T21:25:38.982Z,4.03
2022-08-07T21:28:18.873Z,3.80
2022-08-07T21:32:43.005Z,4.00
2022-08-07T21:34:45.988Z,3.60
2022-08-07T21:37:57.418Z,4.03
2022-08-07T21:40:38.964Z,3.70
2022-08-07T21:43:23.140Z,4.30
2022-08-07T21:46:32.232Z,4.47
2022-08-07T21:49:14.408Z,4.00
2022-08-07T21:52:11.561Z,3.63
2022-08-07T21:55:30.521Z,3.70
2022-08-07T21:58:03.154Z,4.05
2022-08-07T22:00:31.136Z,4.07
2022-08-07T22:03:10.747Z,4.25
2022-08-07T22:05:59.574Z,4.00
2022-08-07T22:09:07.023Z,3.88
2022-08-07T22:12:05.959Z,3.88
2022-08-07T22:14:36.356Z,4.00
2022-08-07T22:17:05.028Z,3.75
2022-08-07T22:19:57.424Z,3.95
2022-08-07T22:22:31.805Z,3.67
2022-08-07T22:25:27.096Z,4.00
2022-08-07T22:28:31.873Z,4.20
2022-08-07T22:31:12.152Z,3.90
2022-08-07T22:34:13.213Z,4.07
2022-08-07T22:36:53.162Z,4.05
2022-08-07T22:39:53.409Z,4.00
2022-08-07T22:42:25.957Z,3.90
2022-08-07T22:44:59.965Z,4.28
2022-08-07T22:47:37.984Z,4.05
2022-08-07T22:50:41.879Z,4.30
2022-08-07T22:54:05.442Z,4.15
2022-08-07T22:56:12.956Z,3.95
2022-08-07T22:59:02.445Z,4.68
2022-08-07T23:01:58.996Z,4.40
2022-08-07T23:04:58.091Z,4.60
2022-08-07T23:08:04.843Z,4.10
2022-08-07T23:10:53.663Z,4.07
2022-08-07T23:14:09.113Z,4.40
2022-08-07T23:16:48.511Z,4.47
2022-08-07T23:20:05.546Z,4.10
2022-08-07T23:22:48.855Z,4.30
2022-08-07T23:25:28.495Z,5.05
2022-08-07T23:28:22.594Z,5.03
2022-08-07T23:32:49.293Z,4.70
2022-08-07T23:34:44.153Z,4.80
2022-08-07T23:37:29.712Z,5.40
2022-08-07T23:40:14.732Z,5.25
2022-08-07T23:42:59.943Z,5.20
2022-08-07T23:46:07.581Z,5.00
2022-08-07T23:48:48.846Z,5.40
2022-08-07T23:52:59.746Z,5.18
2022-08-07T23:54:43.938Z,5.25
2022-08-07T23:57:34.740Z,5.10
